createdAt,value
2022-10-19T00:01:05.182Z,6.85
2022-10-19T00:03:32.614Z,7.07
2022-10-19T00:05:59.862Z,7.22
2022-10-19T00:08:26.749Z,7.22
2022-10-19T00:10:53.391Z,6.55
2022-10-19T00:13:20.092Z,7.18
2022-10-19T00:15:46.829Z,7.05
2022-10-19T00:18:13.492Z,6.38
2022-10-19T00:20:40.128Z,6.15
2022-10-19T00:23:06.751Z,6.30
2022-10-19T00:25:33.391Z,8.48
2022-10-19T00:28:00.733Z,16.33
2022-10-19T00:30:27.399Z,20.35
2022-10-19T00:32:54.016Z,25.13
2022-10-19T00:35:20.695Z,25.20
2022-10-19T00:37:47.425Z,25.55
2022-10-19T00:40:14.325Z,26.90
2022-10-19T00:42:40.995Z,27.73
2022-10-19T00:45:15.254Z,27.50
2022-10-19T00:47:42.987Z,31.25
2022-10-19T00:50:10.949Z,29.80
2022-10-19T00:52:37.658Z,28.30
2022-10-19T00:55:04.938Z,28.42
2022-10-19T00:57:32.169Z,27.25
2022-10-19T00:59:59.391Z,28.20
2022-10-19T01:02:26.293Z,27.00
2022-10-19T01:04:53.598Z,27.33
2022-10-19T01:07:20.640Z,25.10
2022-10-19T01:09:47.314Z,26.25
2022-10-19T01:12:31.790Z,25.85
2022-10-19T01:15:16.878Z,25.58
2022-10-19T01:18:02.002Z,25.58
2022-10-19T01:21:07.258Z,24.17
2022-10-19T01:23:53.229Z,25.15
2022-10-19T01:26:22.981Z,26.73
2022-10-19T01:29:03.845Z,29.65
2022-10-19T01:31:40.686Z,28.80
2022-10-19T01:34:31.721Z,29.13
2022-10-19T01:37:05.233Z,32.25
2022-10-19T01:39:54.626Z,29.15
2022-10-19T01:42:39.495Z,31.98
2022-10-19T01:45:08.458Z,29.40
2022-10-19T01:47:38.734Z,28.55
2022-10-19T01:50:37.270Z,25.80
2022-10-19T01:53:07.005Z,23.70
2022-10-19T01:55:33.748Z,23.23
2022-10-19T01:58:06.249Z,22.75
2022-10-19T02:00:36.212Z,20.83
2022-10-19T02:03:04.457Z,19.40
2022-10-19T02:05:32.709Z,19.23
2022-10-19T02:08:12.740Z,19.58
2022-10-19T02:10:41.857Z,20.13
2022-10-19T02:13:08.760Z,18.67
2022-10-19T02:15:38.359Z,19.08
2022-10-19T02:18:07.193Z,18.83
2022-10-19T02:20:36.436Z,21.50
2022-10-19T02:23:06.561Z,21.15
2022-10-19T02:25:34.057Z,24.23
2022-10-19T02:28:02.195Z,25.75
2022-10-19T02:30:28.895Z,24.98
2022-10-19T02:32:55.568Z,24.42
2022-10-19T02:35:23.029Z,23.50
2022-10-19T02:37:49.748Z,25.55
2022-10-19T02:40:16.588Z,24.90
2022-10-19T02:42:51.158Z,24.58
2022-10-19T02:45:31.198Z,22.55
2022-10-19T02:48:01.012Z,22.85
2022-10-19T02:50:27.919Z,37.65
2022-10-19T02:52:54.595Z,56.13
2022-10-19T02:55:21.208Z,33.20
2022-10-19T02:57:47.850Z,32.15
2022-10-19T03:00:14.841Z,42.10
2022-10-19T03:02:41.531Z,30.40
2022-10-19T03:05:09.083Z,56.88
2022-10-19T03:07:36.270Z,25.60
2022-10-19T03:10:03.588Z,62.20
2022-10-19T03:12:30.267Z,40.10
2022-10-19T03:14:56.909Z,81.60
2022-10-19T03:17:23.541Z,36.47
2022-10-19T03:19:50.181Z,35.42
2022-10-19T03:22:16.889Z,35.63
2022-10-19T03:24:43.683Z,39.30
2022-10-19T03:27:10.406Z,52.88
2022-10-19T03:29:37.067Z,53.67
2022-10-19T03:32:04.054Z,49.80
2022-10-19T03:34:30.715Z,57.67
2022-10-19T03:36:59.310Z,62.58
2022-10-19T03:39:26.398Z,114.00
2022-10-19T03:41:53.169Z,83.90
2022-10-19T03:44:19.838Z,74.88
2022-10-19T03:46:46.477Z,148.90
2022-10-19T03:49:13.166Z,95.00
2022-10-19T03:51:40.001Z,67.28
2022-10-19T03:54:09.183Z,69.85
2022-10-19T03:56:36.439Z,77.10
2022-10-19T03:59:05.270Z,75.57
2022-10-19T04:01:40.000Z,145.43
2022-10-19T04:04:12.824Z,122.10
2022-10-19T04:06:42.094Z,88.20
2022-10-19T04:09:11.179Z,78.70
2022-10-19T04:11:37.852Z,75.28
2022-10-19T04:14:04.684Z,81.25
2022-10-19T04:16:31.929Z,93.28
2022-10-19T04:18:58.937Z,80.88
2022-10-19T04:21:32.459Z,92.35
2022-10-19T04:24:07.825Z,64.97
2022-10-19T04:26:35.690Z,62.33
2022-10-19T04:29:02.389Z,63.65
2022-10-19T04:31:29.615Z,79.05
2022-10-19T04:33:56.826Z,88.90
2022-10-19T04:36:24.044Z,58.72
2022-10-19T04:38:50.748Z,73.38
2022-10-19T04:41:19.257Z,78.28
2022-10-19T04:43:46.376Z,67.10
2022-10-19T04:46:18.344Z,59.47
2022-10-19T04:48:46.195Z,60.97
2022-10-19T04:51:13.152Z,61.92
2022-10-19T04:53:41.486Z,88.22
2022-10-19T04:56:10.761Z,55.97
2022-10-19T04:58:37.427Z,54.42
2022-10-19T05:01:12.235Z,66.07
2022-10-19T05:03:39.653Z,49.83
2022-10-19T05:06:07.282Z,50.65
2022-10-19T05:08:34.201Z,83.13
2022-10-19T05:11:02.873Z,51.13
2022-10-19T05:13:29.710Z,75.40
2022-10-19T05:15:57.807Z,60.05
2022-10-19T05:18:24.495Z,45.65
2022-10-19T05:20:51.263Z,43.92
2022-10-19T05:23:17.916Z,42.75
2022-10-19T05:25:44.640Z,46.38
2022-10-19T05:28:11.265Z,45.95
2022-10-19T05:30:39.286Z,47.85
2022-10-19T05:33:05.955Z,47.30
2022-10-19T05:35:32.652Z,68.63
2022-10-19T05:37:59.302Z,49.35
2022-10-19T05:40:25.934Z,66.43
2022-10-19T05:42:52.557Z,58.75
2022-10-19T05:45:19.173Z,39.70
2022-10-19T05:47:45.853Z,39.00
2022-10-19T05:50:12.528Z,34.58
2022-10-19T05:52:39.175Z,64.75
2022-10-19T05:55:06.451Z,28.42
2022-10-19T05:57:33.497Z,32.30
2022-10-19T06:00:00.339Z,26.98
2022-10-19T06:02:26.968Z,37.15
2022-10-19T06:04:53.649Z,38.58
2022-10-19T06:07:20.333Z,35.70
2022-10-19T06:09:47.851Z,26.40
2022-10-19T06:12:16.194Z,28.20
2022-10-19T06:14:43.228Z,32.35
2022-10-19T06:17:09.929Z,28.73
2022-10-19T06:19:36.868Z,29.92
2022-10-19T06:22:03.594Z,33.78
2022-10-19T06:24:30.333Z,30.80
2022-10-19T06:26:57.021Z,53.83
2022-10-19T06:29:23.635Z,29.77
2022-10-19T06:31:50.300Z,26.42
2022-10-19T06:34:17.118Z,26.40
2022-10-19T06:36:44.929Z,23.80
2022-10-19T06:39:11.601Z,27.33
2022-10-19T06:41:38.323Z,20.90
2022-10-19T06:44:05.056Z,23.35
2022-10-19T06:46:32.380Z,24.00
2022-10-19T06:49:01.142Z,25.70
2022-10-19T06:51:29.518Z,24.08
2022-10-19T06:53:57.499Z,23.80
2022-10-19T06:56:25.467Z,20.98
2022-10-19T06:58:52.702Z,20.95
2022-10-19T07:01:19.500Z,22.88
2022-10-19T07:03:46.187Z,20.95
2022-10-19T07:06:13.704Z,21.35
2022-10-19T07:08:41.981Z,20.63
2022-10-19T07:11:11.244Z,21.70
2022-10-19T07:16:15.781Z,21.17
2022-10-19T07:18:46.817Z,19.83
2022-10-19T07:21:15.574Z,21.17
2022-10-19T07:23:43.464Z,20.58
2022-10-19T07:26:14.339Z,16.85
2022-10-19T07:28:42.206Z,16.05
2022-10-19T07:31:11.144Z,16.45
2022-10-19T07:33:38.123Z,16.23
2022-10-19T07:36:07.110Z,16.40
2022-10-19T07:38:34.531Z,14.70
2022-10-19T07:41:02.164Z,16.30
2022-10-19T07:43:28.932Z,16.95
2022-10-19T07:46:03.349Z,16.80
2022-10-19T07:48:30.131Z,15.88
2022-10-19T07:50:57.115Z,19.50
2022-10-19T07:53:24.390Z,16.08
2022-10-19T07:55:51.078Z,16.75
2022-10-19T07:58:17.766Z,16.25
2022-10-19T08:00:44.537Z,16.40
2022-10-19T08:03:43.764Z,17.25
2022-10-19T08:06:02.514Z,16.00
2022-10-19T08:08:29.273Z,17.42
2022-10-19T08:10:56.249Z,18.95
2022-10-19T08:13:22.943Z,20.38
2022-10-19T08:15:49.833Z,19.98
2022-10-19T08:18:21.467Z,20.67
2022-10-19T08:20:48.161Z,23.98
2022-10-19T08:23:14.835Z,24.73
2022-10-19T08:25:41.498Z,23.27
2022-10-19T08:28:08.187Z,22.42
2022-10-19T08:30:36.062Z,23.25
2022-10-19T08:33:04.568Z,24.48
2022-10-19T08:35:31.548Z,30.13
2022-10-19T08:37:58.854Z,25.85
2022-10-19T08:40:29.459Z,25.73
2022-10-19T08:43:33.015Z,27.58
2022-10-19T08:46:12.801Z,26.15
2022-10-19T08:48:42.996Z,27.45
2022-10-19T08:51:12.698Z,27.70
2022-10-19T08:53:59.645Z,26.67
2022-10-19T08:56:50.036Z,25.08
2022-10-19T08:59:28.244Z,21.42
2022-10-19T09:02:28.259Z,22.33
2022-10-19T09:05:00.685Z,19.13
2022-10-19T09:07:37.629Z,20.13
2022-10-19T09:10:15.743Z,22.35
2022-10-19T09:12:46.040Z,18.40
2022-10-19T09:15:18.752Z,18.75
2022-10-19T09:17:45.610Z,18.50
2022-10-19T09:20:33.505Z,16.77
2022-10-19T09:23:11.117Z,16.45
2022-10-19T09:25:39.980Z,16.48
2022-10-19T09:28:18.405Z,18.95
2022-10-19T09:30:47.178Z,15.95
2022-10-19T09:33:21.797Z,14.73
2022-10-19T09:35:48.583Z,14.40
2022-10-19T09:38:19.868Z,14.10
2022-10-19T09:40:47.230Z,12.27
2022-10-19T09:43:21.339Z,10.82
2022-10-19T09:46:19.519Z,9.60
2022-10-19T09:48:51.075Z,9.73
2022-10-19T09:51:18.848Z,9.27
2022-10-19T09:53:52.490Z,9.38
2022-10-19T09:56:26.974Z,9.65
2022-10-19T09:58:57.367Z,8.43
2022-10-19T10:01:41.486Z,8.30
2022-10-19T10:04:09.656Z,8.48
2022-10-19T10:06:37.009Z,8.10
2022-10-19T10:09:03.948Z,8.05
2022-10-19T10:11:38.140Z,6.72
2022-10-19T10:14:17.696Z,5.60
2022-10-19T10:16:44.661Z,6.05
2022-10-19T10:19:16.460Z,5.15
2022-10-19T10:21:52.802Z,4.97
2022-10-19T10:24:21.595Z,5.18
2022-10-19T10:26:53.932Z,5.22
2022-10-19T10:29:20.571Z,5.35
2022-10-19T10:31:55.746Z,5.70
2022-10-19T10:37:30.205Z,5.45
2022-10-19T10:40:00.547Z,5.03
2022-10-19T10:42:49.358Z,4.95
2022-10-19T10:45:29.657Z,4.93
2022-10-19T10:47:57.082Z,4.55
2022-10-19T10:50:32.696Z,4.43
2022-10-19T10:53:05.172Z,4.00
2022-10-19T10:55:32.857Z,3.95
2022-10-19T10:58:16.744Z,3.88
2022-10-19T11:00:44.230Z,3.78
2022-10-19T11:03:26.617Z,4.05
2022-10-19T11:06:05.488Z,4.55
2022-10-19T11:08:49.117Z,10.55
2022-10-19T11:11:28.475Z,3.60
2022-10-19T11:14:05.093Z,4.00
2022-10-19T11:16:35.419Z,2.90
2022-10-19T11:19:35.834Z,3.80
2022-10-19T11:22:30.103Z,3.90
2022-10-19T11:25:18.450Z,4.28
2022-10-19T11:27:50.979Z,3.67
2022-10-19T11:30:20.555Z,3.70
2022-10-19T11:32:57.814Z,3.72
2022-10-19T11:35:27.492Z,4.00
2022-10-19T11:38:20.406Z,3.47
2022-10-19T11:41:17.687Z,3.55
2022-10-19T11:43:45.372Z,2.92
2022-10-19T11:46:15.027Z,3.30
2022-10-19T11:48:52.856Z,3.55
2022-10-19T11:51:41.912Z,3.42
2022-10-19T11:54:13.772Z,3.15
2022-10-19T11:57:03.284Z,3.20
2022-10-19T12:00:08.244Z,3.20
2022-10-19T12:03:38.191Z,3.83
2022-10-19T12:06:18.062Z,3.90
2022-10-19T12:09:00.054Z,4.03
2022-10-19T12:11:49.602Z,3.53
2022-10-19T12:14:20.522Z,4.28
2022-10-19T12:16:52.171Z,3.65
2022-10-19T12:19:22.496Z,4.00
2022-10-19T12:21:51.084Z,3.50
2022-10-19T12:24:23.891Z,3.72
2022-10-19T12:26:51.917Z,4.60
2022-10-19T12:29:33.720Z,4.78
2022-10-19T12:32:01.347Z,4.40
2022-10-19T12:34:47.281Z,4.43
2022-10-19T12:37:28.665Z,4.15
2022-10-19T12:40:00.466Z,3.63
2022-10-19T12:42:35.673Z,3.80
2022-10-19T12:45:25.356Z,3.95
2022-10-19T12:48:15.866Z,4.45
2022-10-19T12:50:48.656Z,4.97
2022-10-19T12:53:30.910Z,7.55
2022-10-19T12:56:05.602Z,4.32
2022-10-19T12:58:46.782Z,3.80
2022-10-19T13:01:27.598Z,4.80
2022-10-19T13:04:11.067Z,4.90
2022-10-19T13:06:44.194Z,4.00
2022-10-19T13:09:24.493Z,4.63
2022-10-19T13:12:22.467Z,4.10
2022-10-19T13:15:00.290Z,4.15
2022-10-19T13:17:49.110Z,4.95
2022-10-19T13:20:15.812Z,4.78
2022-10-19T13:22:45.018Z,4.13
2022-10-19T13:25:30.633Z,4.20
2022-10-19T13:28:01.383Z,4.35
2022-10-19T13:30:40.905Z,4.97
2022-10-19T13:33:31.637Z,5.43
2022-10-19T13:36:02.563Z,8.60
2022-10-19T13:41:14.709Z,10.70
2022-10-19T13:44:01.977Z,19.05
2022-10-19T13:46:31.716Z,7.68
2022-10-19T13:49:19.938Z,24.30
2022-10-19T13:52:03.202Z,25.17
2022-10-19T13:54:35.989Z,18.70
2022-10-19T13:57:27.699Z,7.53
2022-10-19T14:00:19.004Z,8.40
2022-10-19T14:03:00.859Z,7.32
2022-10-19T14:05:33.354Z,5.72
2022-10-19T14:08:21.860Z,6.20
2022-10-19T14:11:01.388Z,6.85
2022-10-19T14:13:28.804Z,4.47
2022-10-19T14:15:57.199Z,5.32
2022-10-19T14:18:29.815Z,5.30
2022-10-19T14:21:01.325Z,4.35
2022-10-19T14:23:30.348Z,5.47
2022-10-19T14:26:05.528Z,4.80
2022-10-19T14:28:33.347Z,4.10
2022-10-19T14:31:08.748Z,6.03
2022-10-19T14:33:39.733Z,5.10
2022-10-19T14:36:07.807Z,6.55
2022-10-19T14:38:39.026Z,6.88
2022-10-19T14:41:06.840Z,4.53
2022-10-19T14:43:34.582Z,4.80
2022-10-19T14:46:07.423Z,6.72
2022-10-19T14:48:48.712Z,5.50
2022-10-19T14:51:39.327Z,5.70
2022-10-19T14:54:11.115Z,6.43
2022-10-19T14:57:00.840Z,4.40
2022-10-19T14:59:39.220Z,4.88
2022-10-19T15:02:24.742Z,4.63
2022-10-19T15:04:53.027Z,8.07
2022-10-19T15:07:23.741Z,6.45
2022-10-19T15:09:59.862Z,9.82
2022-10-19T15:12:30.252Z,4.95
2022-10-19T15:14:57.688Z,8.95
2022-10-19T15:17:31.608Z,7.95
2022-10-19T15:20:02.424Z,10.57
2022-10-19T15:22:32.380Z,8.98
2022-10-19T15:25:08.386Z,11.90
2022-10-19T15:27:40.294Z,9.32
2022-10-19T15:30:29.647Z,12.85
2022-10-19T15:33:02.213Z,15.93
2022-10-19T15:35:30.964Z,14.55
2022-10-19T15:38:04.593Z,12.48
2022-10-19T15:40:36.487Z,13.02
2022-10-19T15:43:32.560Z,13.90
2022-10-19T15:46:23.518Z,13.48
2022-10-19T15:49:23.878Z,14.07
2022-10-19T15:51:50.868Z,15.45
2022-10-19T15:54:19.110Z,13.60
2022-10-19T15:56:48.431Z,19.17
2022-10-19T15:59:17.741Z,20.38
2022-10-19T16:01:45.437Z,29.08
2022-10-19T16:04:12.200Z,24.25
2022-10-19T16:06:40.659Z,23.15
2022-10-19T16:09:08.102Z,28.23
2022-10-19T16:11:35.469Z,24.10
2022-10-19T16:14:02.277Z,44.95
2022-10-19T16:16:31.401Z,42.03
2022-10-19T16:18:58.221Z,33.85
2022-10-19T16:21:31.272Z,32.55
2022-10-19T16:23:58.136Z,31.88
2022-10-19T16:26:26.284Z,28.73
2022-10-19T16:28:54.696Z,25.75
2022-10-19T16:31:22.117Z,38.88
2022-10-19T16:33:48.764Z,28.52
2022-10-19T16:36:18.356Z,22.55
2022-10-19T16:38:44.973Z,22.40
2022-10-19T16:41:11.990Z,21.42
2022-10-19T16:43:38.741Z,18.77
2022-10-19T16:46:06.062Z,27.50
2022-10-19T16:48:33.223Z,23.50
2022-10-19T16:51:05.963Z,18.95
2022-10-19T16:53:35.773Z,18.02
2022-10-19T16:56:08.380Z,15.35
2022-10-19T16:58:36.496Z,15.02
2022-10-19T17:01:10.444Z,15.25
2022-10-19T17:03:37.476Z,17.25
2022-10-19T17:06:05.469Z,11.63
2022-10-19T17:08:44.202Z,13.65
2022-10-19T17:11:33.438Z,13.85
2022-10-19T17:14:02.728Z,13.45
2022-10-19T17:16:31.374Z,14.20
2022-10-19T17:18:59.663Z,13.70
2022-10-19T17:21:31.736Z,14.63
2022-10-19T17:24:00.102Z,14.45
2022-10-19T17:26:43.196Z,14.15
2022-10-19T17:29:10.152Z,14.90
2022-10-19T17:31:37.869Z,15.27
2022-10-19T17:34:05.189Z,12.50
2022-10-19T17:36:34.581Z,12.65
2022-10-19T17:39:05.426Z,13.15
2022-10-19T17:41:32.409Z,19.05
2022-10-19T17:43:59.124Z,17.15
2022-10-19T17:46:28.362Z,21.45
2022-10-19T17:48:55.150Z,16.75
2022-10-19T17:51:24.521Z,14.52
2022-10-19T17:53:51.505Z,15.63
2022-10-19T17:56:20.372Z,15.38
2022-10-19T17:58:47.957Z,13.85
2022-10-19T18:01:16.357Z,14.23
2022-10-19T18:03:43.087Z,15.15
2022-10-19T18:06:15.381Z,14.80
2022-10-19T18:08:44.795Z,15.80
2022-10-19T18:11:14.360Z,17.30
2022-10-19T18:13:43.984Z,18.67
2022-10-19T18:16:11.830Z,23.02
2022-10-19T18:18:40.160Z,18.52
2022-10-19T18:21:09.198Z,20.60
2022-10-19T18:23:36.088Z,18.30
2022-10-19T18:26:13.866Z,18.88
2022-10-19T18:28:41.245Z,24.58
2022-10-19T18:31:09.950Z,28.75
2022-10-19T18:33:37.433Z,18.73
2022-10-19T18:36:05.231Z,18.25
2022-10-19T18:38:31.902Z,18.17
2022-10-19T18:41:02.977Z,14.77
2022-10-19T18:43:29.665Z,15.82
2022-10-19T18:45:57.726Z,15.43
2022-10-19T18:48:26.192Z,16.27
2022-10-19T18:50:52.923Z,19.42
2022-10-19T18:53:19.643Z,19.30
2022-10-19T18:55:46.305Z,18.65
2022-10-19T18:58:12.972Z,16.35
2022-10-19T19:00:45.627Z,16.10
2022-10-19T19:03:12.565Z,14.55
2022-10-19T19:05:39.257Z,19.13
2022-10-19T19:08:05.902Z,15.98
2022-10-19T19:10:32.551Z,13.45
2022-10-19T19:12:59.196Z,12.98
2022-10-19T19:15:25.871Z,15.55
2022-10-19T19:17:54.758Z,12.15
2022-10-19T19:20:21.391Z,12.07
2022-10-19T19:22:48.001Z,14.85
2022-10-19T19:25:14.654Z,15.10
2022-10-19T19:27:41.317Z,9.70
2022-10-19T19:30:09.256Z,12.40
2022-10-19T19:32:36.119Z,11.00
2022-10-19T19:35:02.992Z,11.77
2022-10-19T19:37:30.347Z,10.23
2022-10-19T19:39:57.016Z,11.68
2022-10-19T19:42:27.754Z,11.20
2022-10-19T19:44:54.708Z,14.98
2022-10-19T19:47:21.547Z,16.52
2022-10-19T19:49:48.155Z,11.60
2022-10-19T19:52:14.941Z,10.52
2022-10-19T19:54:41.625Z,10.65
2022-10-19T19:57:08.268Z,8.75
2022-10-19T19:59:34.987Z,9.25
2022-10-19T20:02:01.921Z,8.70
2022-10-19T20:04:28.672Z,9.65
2022-10-19T20:06:55.293Z,11.43
2022-10-19T20:09:21.913Z,10.25
2022-10-19T20:11:48.561Z,10.90
2022-10-19T20:14:15.249Z,10.77
2022-10-19T20:16:41.899Z,9.82
2022-10-19T20:19:11.232Z,9.60
2022-10-19T20:21:38.278Z,9.85
2022-10-19T20:24:05.140Z,9.73
2022-10-19T20:26:31.919Z,9.15
2022-10-19T20:28:58.745Z,10.20
2022-10-19T20:31:25.705Z,10.65
2022-10-19T20:33:52.547Z,9.75
2022-10-19T20:36:23.051Z,11.95
2022-10-19T20:38:55.248Z,8.90
2022-10-19T20:41:24.713Z,9.63
2022-10-19T20:43:51.962Z,9.77
2022-10-19T20:46:22.160Z,9.43
2022-10-19T20:48:49.931Z,17.00
2022-10-19T20:51:30.775Z,8.13
2022-10-19T20:54:00.279Z,8.30
2022-10-19T20:56:29.645Z,8.40
2022-10-19T20:58:57.893Z,11.55
2022-10-19T21:01:24.883Z,12.00
2022-10-19T21:03:53.712Z,16.10
2022-10-19T21:06:21.688Z,8.45
2022-10-19T21:08:48.928Z,8.27
2022-10-19T21:11:42.230Z,7.78
2022-10-19T21:14:14.238Z,8.18
2022-10-19T21:16:41.372Z,14.80
2022-10-19T21:19:19.751Z,8.38
2022-10-19T21:21:52.640Z,7.80
2022-10-19T21:24:32.435Z,7.78
2022-10-19T21:27:04.924Z,8.90
2022-10-19T21:29:31.624Z,8.02
2022-10-19T21:31:58.360Z,9.82
2022-10-19T21:34:29.814Z,10.57
2022-10-19T21:36:57.106Z,13.13
2022-10-19T21:39:24.586Z,11.40
2022-10-19T21:41:51.299Z,11.75
2022-10-19T21:44:18.675Z,10.20
2022-10-19T21:46:47.799Z,10.50
2022-10-19T21:51:40.849Z,9.00
2022-10-19T21:54:19.959Z,9.75
2022-10-19T21:56:47.356Z,9.52
2022-10-19T21:59:15.006Z,7.97
2022-10-19T22:01:42.063Z,8.90
2022-10-19T22:04:16.633Z,8.45
2022-10-19T22:06:43.725Z,8.38
2022-10-19T22:09:13.358Z,7.35
2022-10-19T22:11:40.035Z,7.63
2022-10-19T22:14:06.773Z,6.88
2022-10-19T22:16:36.987Z,6.90
2022-10-19T22:19:05.746Z,6.95
2022-10-19T22:21:33.979Z,6.72
2022-10-19T22:24:03.191Z,7.07
2022-10-19T22:28:59.280Z,7.50
2022-10-19T22:31:27.872Z,8.25
2022-10-19T22:33:54.919Z,7.10
2022-10-19T22:36:21.736Z,6.95
2022-10-19T22:38:48.681Z,6.65
2022-10-19T22:41:15.284Z,7.88
2022-10-19T22:43:41.954Z,6.57
2022-10-19T22:46:08.613Z,6.00
2022-10-19T22:48:35.314Z,6.40
2022-10-19T22:51:01.916Z,7.40
2022-10-19T22:53:28.622Z,7.78
2022-10-19T22:55:55.253Z,8.00
2022-10-19T22:58:21.952Z,6.95
2022-10-19T23:01:00.296Z,6.95
2022-10-19T23:03:26.989Z,6.47
2022-10-19T23:05:53.584Z,6.57
2022-10-19T23:08:20.212Z,6.88
2022-10-19T23:10:46.849Z,7.25
2022-10-19T23:13:13.478Z,7.07
2022-10-19T23:15:43.161Z,7.07
2022-10-19T23:18:11.049Z,7.68
2022-10-19T23:20:37.708Z,8.25
2022-10-19T23:23:04.332Z,7.93
2022-10-19T23:27:58.510Z,6.95
2022-10-19T23:30:25.225Z,6.97
2022-10-19T23:32:51.947Z,7.88
2022-10-19T23:35:18.603Z,6.88
2022-10-19T23:37:45.207Z,7.28
2022-10-19T23:40:12.146Z,6.53
2022-10-19T23:42:38.772Z,6.95
2022-10-19T23:45:05.893Z,8.07
2022-10-19T23:47:32.687Z,7.18
2022-10-19T23:49:59.432Z,6.80
2022-10-19T23:52:26.055Z,7.07
2022-10-19T23:54:52.688Z,7.03
2022-10-19T23:57:19.401Z,6.82
2022-10-19T23:59:46.021Z,7.10
